sensor_id;sensor_type;location;lat;lon;timestamp;P1;durP1;ratioP1;P2;durP2;ratioP2
23800;SDS011;12081;48.614;10.226;2022-08-19T00:01:14;17.10;;;15.07;;
23800;SDS011;12081;48.614;10.226;2022-08-19T00:03:58;16.07;;;14.57;;
23800;SDS011;12081;48.614;10.226;2022-08-19T00:06:45;15.63;;;14.20;;
23800;SDS011;12081;48.614;10.226;2022-08-19T00:09:29;18.27;;;16.47;;
23800;SDS011;12081;48.614;10.226;2022-08-19T00:12:14;17.03;;;15.37;;
23800;SDS011;12081;48.614;10.226;2022-08-19T00:14:58;18.53;;;16.73;;
23800;SDS011;12081;48.614;10.226;2022-08-19T00:17:43;17.30;;;15.60;;
23800;SDS011;12081;48.614;10.226;2022-08-19T00:20:28;17.70;;;15.83;;
23800;SDS011;12081;48.614;10.226;2022-08-19T00:23:12;17.10;;;15.43;;
23800;SDS011;12081;48.614;10.226;2022-08-19T00:25:56;16.10;;;14.63;;
23800;SDS011;12081;48.614;10.226;2022-08-19T00:28:40;17.00;;;15.40;;
23800;SDS011;12081;48.614;10.226;2022-08-19T00:31:24;16.63;;;15.07;;
23800;SDS011;12081;48.614;10.226;2022-08-19T00:34:09;17.30;;;15.50;;
23800;SDS011;12081;48.614;10.226;2022-08-19T00:36:55;17.53;;;15.80;;
23800;SDS011;12081;48.614;10.226;2022-08-19T00:39:40;17.17;;;15.60;;
23800;SDS011;12081;48.614;10.226;2022-08-19T00:42:24;18.10;;;16.33;;
23800;SDS011;12081;48.614;10.226;2022-08-19T00:45:13;18.83;;;17.13;;
23800;SDS011;12081;48.614;10.226;2022-08-19T00:48:00;18.20;;;16.40;;
23800;SDS011;12081;48.614;10.226;2022-08-19T00:58:34;19.67;;;17.67;;
23800;SDS011;12081;48.614;10.226;2022-08-19T01:01:19;19.23;;;17.43;;
23800;SDS011;12081;48.614;10.226;2022-08-19T01:04:03;20.17;;;18.20;;
23800;SDS011;12081;48.614;10.226;2022-08-19T01:06:48;18.77;;;16.93;;
23800;SDS011;12081;48.614;10.226;2022-08-19T01:09:32;18.93;;;17.13;;
23800;SDS011;12081;48.614;10.226;2022-08-19T01:12:18;20.37;;;18.27;;
23800;SDS011;12081;48.614;10.226;2022-08-19T01:15:03;20.17;;;18.17;;
23800;SDS011;12081;48.614;10.226;2022-08-19T01:17:49;19.53;;;17.43;;
23800;SDS011;12081;48.614;10.226;2022-08-19T01:20:35;22.00;;;19.53;;
23800;SDS011;12081;48.614;10.226;2022-08-19T01:23:19;22.00;;;19.67;;
23800;SDS011;12081;48.614;10.226;2022-08-19T01:26:04;21.33;;;19.27;;
23800;SDS011;12081;48.614;10.226;2022-08-19T01:28:50;22.77;;;20.57;;
23800;SDS011;12081;48.614;10.226;2022-08-19T01:31:37;22.50;;;20.40;;
23800;SDS011;12081;48.614;10.226;2022-08-19T01:34:22;25.77;;;23.17;;
23800;SDS011;12081;48.614;10.226;2022-08-19T01:37:10;24.70;;;22.40;;
23800;SDS011;12081;48.614;10.226;2022-08-19T01:39:56;25.37;;;22.80;;
23800;SDS011;12081;48.614;10.226;2022-08-19T01:42:40;26.77;;;24.10;;
23800;SDS011;12081;48.614;10.226;2022-08-19T01:45:26;27.63;;;24.90;;
23800;SDS011;12081;48.614;10.226;2022-08-19T01:48:12;28.07;;;25.27;;
23800;SDS011;12081;48.614;10.226;2022-08-19T01:50:57;28.57;;;25.77;;
23800;SDS011;12081;48.614;10.226;2022-08-19T01:53:41;30.13;;;27.23;;
23800;SDS011;12081;48.614;10.226;2022-08-19T01:56:26;29.40;;;26.50;;
23800;SDS011;12081;48.614;10.226;2022-08-19T01:59:14;30.03;;;27.03;;
23800;SDS011;12081;48.614;10.226;2022-08-19T02:38:12;34.10;;;29.13;;
23800;SDS011;12081;48.614;10.226;2022-08-19T02:41:14;33.67;;;30.17;;
23800;SDS011;12081;48.614;10.226;2022-08-19T02:44:05;33.13;;;29.47;;
23800;SDS011;12081;48.614;10.226;2022-08-19T02:46:49;34.10;;;30.57;;
23800;SDS011;12081;48.614;10.226;2022-08-19T03:00:03;35.33;;;29.60;;
23800;SDS011;12081;48.614;10.226;2022-08-19T03:03:30;33.57;;;30.07;;
23800;SDS011;12081;48.614;10.226;2022-08-19T03:06:16;35.03;;;31.17;;
23800;SDS011;12081;48.614;10.226;2022-08-19T04:18:48;36.30;;;32.40;;
23800;SDS011;12081;48.614;10.226;2022-08-19T04:39:36;32.07;;;28.70;;
23800;SDS011;12081;48.614;10.226;2022-08-19T04:42:40;36.13;;;30.23;;
23800;SDS011;12081;48.614;10.226;2022-08-19T04:45:25;34.13;;;30.00;;
23800;SDS011;12081;48.614;10.226;2022-08-19T04:48:15;37.07;;;33.07;;
23800;SDS011;12081;48.614;10.226;2022-08-19T04:51:05;40.50;;;33.73;;
23800;SDS011;12081;48.614;10.226;2022-08-19T04:53:50;37.93;;;32.63;;
23800;SDS011;12081;48.614;10.226;2022-08-19T04:56:36;41.93;;;35.13;;
23800;SDS011;12081;48.614;10.226;2022-08-19T04:59:20;40.20;;;35.53;;
23800;SDS011;12081;48.614;10.226;2022-08-19T05:02:06;35.83;;;31.90;;
23800;SDS011;12081;48.614;10.226;2022-08-19T05:04:58;36.13;;;31.57;;
23800;SDS011;12081;48.614;10.226;2022-08-19T05:07:44;37.33;;;31.17;;
23800;SDS011;12081;48.614;10.226;2022-08-19T05:10:29;33.53;;;29.63;;
23800;SDS011;12081;48.614;10.226;2022-08-19T05:13:14;36.67;;;31.73;;
23800;SDS011;12081;48.614;10.226;2022-08-19T05:16:00;31.80;;;28.47;;
23800;SDS011;12081;48.614;10.226;2022-08-19T05:18:45;34.37;;;28.87;;
23800;SDS011;12081;48.614;10.226;2022-08-19T05:21:49;32.63;;;29.13;;
23800;SDS011;12081;48.614;10.226;2022-08-19T05:24:52;31.03;;;25.13;;
23800;SDS011;12081;48.614;10.226;2022-08-19T05:27:43;26.77;;;23.97;;
23800;SDS011;12081;48.614;10.226;2022-08-19T05:30:27;28.63;;;25.53;;
23800;SDS011;12081;48.614;10.226;2022-08-19T05:33:11;28.00;;;25.07;;
23800;SDS011;12081;48.614;10.226;2022-08-19T05:35:56;29.03;;;23.63;;
23800;SDS011;12081;48.614;10.226;2022-08-19T05:38:40;29.70;;;26.27;;
23800;SDS011;12081;48.614;10.226;2022-08-19T05:41:24;27.73;;;24.93;;
23800;SDS011;12081;48.614;10.226;2022-08-19T05:44:13;28.60;;;25.60;;
23800;SDS011;12081;48.614;10.226;2022-08-19T05:46:59;35.00;;;28.00;;
23800;SDS011;12081;48.614;10.226;2022-08-19T05:49:44;31.27;;;26.93;;
23800;SDS011;12081;48.614;10.226;2022-08-19T05:52:29;28.53;;;24.87;;
23800;SDS011;12081;48.614;10.226;2022-08-19T05:55:13;26.03;;;23.23;;
23800;SDS011;12081;48.614;10.226;2022-08-19T05:57:58;26.43;;;23.63;;
23800;SDS011;12081;48.614;10.226;2022-08-19T06:00:45;30.03;;;26.83;;
23800;SDS011;12081;48.614;10.226;2022-08-19T06:03:30;32.67;;;27.87;;
23800;SDS011;12081;48.614;10.226;2022-08-19T06:06:17;30.90;;;24.47;;
23800;SDS011;12081;48.614;10.226;2022-08-19T06:09:03;29.37;;;24.33;;
23800;SDS011;12081;48.614;10.226;2022-08-19T06:11:53;30.40;;;24.77;;
23800;SDS011;12081;48.614;10.226;2022-08-19T06:14:39;30.57;;;24.70;;
23800;SDS011;12081;48.614;10.226;2022-08-19T06:17:25;26.37;;;23.57;;
23800;SDS011;12081;48.614;10.226;2022-08-19T06:20:11;31.47;;;24.13;;
23800;SDS011;12081;48.614;10.226;2022-08-19T06:22:57;26.43;;;23.70;;
23800;SDS011;12081;48.614;10.226;2022-08-19T06:28:24;29.97;;;24.43;;
23800;SDS011;12081;48.614;10.226;2022-08-19T06:31:09;29.50;;;26.10;;
23800;SDS011;12081;48.614;10.226;2022-08-19T06:33:53;30.77;;;27.03;;
23800;SDS011;12081;48.614;10.226;2022-08-19T06:36:47;33.17;;;25.77;;
23800;SDS011;12081;48.614;10.226;2022-08-19T06:39:35;30.40;;;25.00;;
23800;SDS011;12081;48.614;10.226;2022-08-19T06:42:22;32.83;;;25.40;;
23800;SDS011;12081;48.614;10.226;2022-08-19T06:45:06;30.13;;;26.03;;
23800;SDS011;12081;48.614;10.226;2022-08-19T06:47:52;28.00;;;23.97;;
23800;SDS011;12081;48.614;10.226;2022-08-19T06:50:45;27.70;;;23.50;;
23800;SDS011;12081;48.614;10.226;2022-08-19T06:53:31;27.83;;;24.27;;
23800;SDS011;12081;48.614;10.226;2022-08-19T06:56:16;30.77;;;23.87;;
23800;SDS011;12081;48.614;10.226;2022-08-19T06:59:06;27.13;;;23.53;;
23800;SDS011;12081;48.614;10.226;2022-08-19T07:01:55;28.63;;;23.43;;
23800;SDS011;12081;48.614;10.226;2022-08-19T07:04:40;25.77;;;23.07;;
23800;SDS011;12081;48.614;10.226;2022-08-19T07:07:24;28.27;;;24.57;;
23800;SDS011;12081;48.614;10.226;2022-08-19T07:10:09;27.63;;;24.73;;
23800;SDS011;12081;48.614;10.226;2022-08-19T07:12:53;28.80;;;23.53;;
23800;SDS011;12081;48.614;10.226;2022-08-19T07:15:37;25.73;;;22.80;;
23800;SDS011;12081;48.614;10.226;2022-08-19T07:18:21;25.23;;;22.13;;
23800;SDS011;12081;48.614;10.226;2022-08-19T07:21:07;25.83;;;23.03;;
23800;SDS011;12081;48.614;10.226;2022-08-19T07:23:58;31.47;;;23.57;;
23800;SDS011;12081;48.614;10.226;2022-08-19T07:26:43;35.03;;;24.33;;
23800;SDS011;12081;48.614;10.226;2022-08-19T07:29:29;32.13;;;25.23;;
23800;SDS011;12081;48.614;10.226;2022-08-19T07:32:14;46.83;;;24.60;;
23800;SDS011;12081;48.614;10.226;2022-08-19T07:34:58;32.87;;;24.57;;
23800;SDS011;12081;48.614;10.226;2022-08-19T07:37:44;31.60;;;25.00;;
23800;SDS011;12081;48.614;10.226;2022-08-19T07:40:28;30.37;;;23.73;;
23800;SDS011;12081;48.614;10.226;2022-08-19T07:43:13;28.73;;;24.80;;
23800;SDS011;12081;48.614;10.226;2022-08-19T07:45:58;32.27;;;25.23;;
23800;SDS011;12081;48.614;10.226;2022-08-19T07:48:43;27.43;;;24.50;;
23800;SDS011;12081;48.614;10.226;2022-08-19T07:51:31;25.90;;;23.13;;
23800;SDS011;12081;48.614;10.226;2022-08-19T07:54:17;28.90;;;24.30;;
23800;SDS011;12081;48.614;10.226;2022-08-19T07:57:03;27.07;;;22.73;;
23800;SDS011;12081;48.614;10.226;2022-08-19T07:59:48;26.40;;;23.30;;
23800;SDS011;12081;48.614;10.226;2022-08-19T08:02:32;29.47;;;23.57;;
23800;SDS011;12081;48.614;10.226;2022-08-19T08:05:20;26.70;;;21.83;;
23800;SDS011;12081;48.614;10.226;2022-08-19T08:08:24;26.63;;;23.47;;
23800;SDS011;12081;48.614;10.226;2022-08-19T08:11:26;26.97;;;23.23;;
23800;SDS011;12081;48.614;10.226;2022-08-19T08:14:11;25.63;;;22.50;;
23800;SDS011;12081;48.614;10.226;2022-08-19T08:16:56;29.10;;;24.47;;
23800;SDS011;12081;48.614;10.226;2022-08-19T08:19:41;27.20;;;24.20;;
23800;SDS011;12081;48.614;10.226;2022-08-19T08:22:27;25.80;;;23.00;;
23800;SDS011;12081;48.614;10.226;2022-08-19T08:25:31;26.47;;;23.63;;
23800;SDS011;12081;48.614;10.226;2022-08-19T08:28:16;27.03;;;22.20;;
23800;SDS011;12081;48.614;10.226;2022-08-19T08:31:01;24.40;;;21.83;;
23800;SDS011;12081;48.614;10.226;2022-08-19T08:33:45;27.17;;;24.33;;
23800;SDS011;12081;48.614;10.226;2022-08-19T08:36:30;27.03;;;23.43;;
23800;SDS011;12081;48.614;10.226;2022-08-19T08:39:18;27.17;;;23.50;;
23800;SDS011;12081;48.614;10.226;2022-08-19T08:45:24;29.27;;;24.40;;
23800;SDS011;12081;48.614;10.226;2022-08-19T08:48:20;28.90;;;23.83;;
23800;SDS011;12081;48.614;10.226;2022-08-19T08:51:51;29.73;;;26.10;;
23800;SDS011;12081;48.614;10.226;2022-08-19T08:54:37;33.57;;;25.83;;
23800;SDS011;12081;48.614;10.226;2022-08-19T08:57:33;31.90;;;26.30;;
23800;SDS011;12081;48.614;10.226;2022-08-19T09:00:28;31.57;;;26.70;;
23800;SDS011;12081;48.614;10.226;2022-08-19T09:03:20;29.63;;;24.80;;
23800;SDS011;12081;48.614;10.226;2022-08-19T09:06:10;29.43;;;26.33;;
23800;SDS011;12081;48.614;10.226;2022-08-19T09:09:10;33.30;;;28.27;;
23800;SDS011;12081;48.614;10.226;2022-08-19T09:12:31;31.93;;;28.53;;
23800;SDS011;12081;48.614;10.226;2022-08-19T09:18:46;32.63;;;28.47;;
23800;SDS011;12081;48.614;10.226;2022-08-19T09:21:32;30.63;;;27.23;;
23800;SDS011;12081;48.614;10.226;2022-08-19T09:24:18;33.97;;;26.60;;
23800;SDS011;12081;48.614;10.226;2022-08-19T09:27:02;27.97;;;24.23;;
23800;SDS011;12081;48.614;10.226;2022-08-19T09:29:46;28.07;;;24.90;;
23800;SDS011;12081;48.614;10.226;2022-08-19T09:32:32;28.93;;;24.73;;
23800;SDS011;12081;48.614;10.226;2022-08-19T09:35:17;27.10;;;23.50;;
23800;SDS011;12081;48.614;10.226;2022-08-19T09:38:01;27.83;;;24.53;;
23800;SDS011;12081;48.614;10.226;2022-08-19T09:40:45;25.40;;;22.20;;
23800;SDS011;12081;48.614;10.226;2022-08-19T09:43:29;27.10;;;24.20;;
23800;SDS011;12081;48.614;10.226;2022-08-19T09:46:14;26.87;;;23.07;;
23800;SDS011;12081;48.614;10.226;2022-08-19T09:49:00;28.77;;;25.47;;
23800;SDS011;12081;48.614;10.226;2022-08-19T09:51:45;26.57;;;23.67;;
23800;SDS011;12081;48.614;10.226;2022-08-19T09:54:32;27.90;;;24.90;;
23800;SDS011;12081;48.614;10.226;2022-08-19T09:57:17;31.07;;;26.10;;
23800;SDS011;12081;48.614;10.226;2022-08-19T10:00:01;34.10;;;25.87;;
23800;SDS011;12081;48.614;10.226;2022-08-19T10:02:47;39.20;;;27.60;;
23800;SDS011;12081;48.614;10.226;2022-08-19T10:05:31;33.90;;;28.20;;
23800;SDS011;12081;48.614;10.226;2022-08-19T10:08:35;34.87;;;28.97;;
23800;SDS011;12081;48.614;10.226;2022-08-19T10:11:20;30.87;;;27.10;;
23800;SDS011;12081;48.614;10.226;2022-08-19T10:14:04;29.20;;;25.57;;
23800;SDS011;12081;48.614;10.226;2022-08-19T10:16:51;34.07;;;27.33;;
23800;SDS011;12081;48.614;10.226;2022-08-19T10:19:36;35.57;;;28.70;;
23800;SDS011;12081;48.614;10.226;2022-08-19T10:22:21;37.70;;;28.97;;
23800;SDS011;12081;48.614;10.226;2022-08-19T10:25:06;33.80;;;29.13;;
23800;SDS011;12081;48.614;10.226;2022-08-19T10:27:51;32.23;;;28.20;;
23800;SDS011;12081;48.614;10.226;2022-08-19T10:30:36;34.73;;;28.47;;
23800;SDS011;12081;48.614;10.226;2022-08-19T10:33:20;35.70;;;27.50;;
23800;SDS011;12081;48.614;10.226;2022-08-19T10:36:09;32.43;;;27.40;;
23800;SDS011;12081;48.614;10.226;2022-08-19T10:38:59;188.10;;;57.73;;
23800;SDS011;12081;48.614;10.226;2022-08-19T10:41:44;44.27;;;31.47;;
23800;SDS011;12081;48.614;10.226;2022-08-19T10:44:29;34.17;;;30.50;;
23800;SDS011;12081;48.614;10.226;2022-08-19T10:47:13;29.87;;;26.63;;
23800;SDS011;12081;48.614;10.226;2022-08-19T10:49:58;30.73;;;26.30;;
23800;SDS011;12081;48.614;10.226;2022-08-19T10:53:05;30.87;;;27.37;;
23800;SDS011;12081;48.614;10.226;2022-08-19T10:55:52;32.03;;;27.70;;
23800;SDS011;12081;48.614;10.226;2022-08-19T10:58:55;33.50;;;25.20;;
23800;SDS011;12081;48.614;10.226;2022-08-19T11:01:42;33.33;;;26.47;;
23800;SDS011;12081;48.614;10.226;2022-08-19T11:04:27;31.03;;;26.47;;
23800;SDS011;12081;48.614;10.226;2022-08-19T11:07:12;28.67;;;25.67;;
23800;SDS011;12081;48.614;10.226;2022-08-19T11:09:56;29.57;;;26.37;;
23800;SDS011;12081;48.614;10.226;2022-08-19T11:12:40;30.60;;;27.40;;
23800;SDS011;12081;48.614;10.226;2022-08-19T11:15:25;32.20;;;26.47;;
23800;SDS011;12081;48.614;10.226;2022-08-19T11:18:12;32.80;;;25.80;;
23800;SDS011;12081;48.614;10.226;2022-08-19T11:21:04;32.27;;;27.90;;
23800;SDS011;12081;48.614;10.226;2022-08-19T11:23:51;30.87;;;27.10;;
23800;SDS011;12081;48.614;10.226;2022-08-19T11:26:37;29.10;;;26.00;;
23800;SDS011;12081;48.614;10.226;2022-08-19T11:29:22;31.83;;;27.93;;
23800;SDS011;12081;48.614;10.226;2022-08-19T11:32:11;33.17;;;28.77;;
23800;SDS011;12081;48.614;10.226;2022-08-19T11:34:56;30.33;;;25.57;;
23800;SDS011;12081;48.614;10.226;2022-08-19T11:37:40;30.23;;;27.07;;
23800;SDS011;12081;48.614;10.226;2022-08-19T11:40:24;32.63;;;24.87;;
23800;SDS011;12081;48.614;10.226;2022-08-19T11:43:08;29.03;;;25.27;;
23800;SDS011;12081;48.614;10.226;2022-08-19T11:45:53;29.97;;;26.17;;
23800;SDS011;12081;48.614;10.226;2022-08-19T11:48:39;30.10;;;26.37;;
23800;SDS011;12081;48.614;10.226;2022-08-19T11:51:24;33.83;;;28.03;;
23800;SDS011;12081;48.614;10.226;2022-08-19T11:54:08;29.07;;;24.33;;
23800;SDS011;12081;48.614;10.226;2022-08-19T11:56:53;31.00;;;26.27;;
23800;SDS011;12081;48.614;10.226;2022-08-19T11:59:37;43.03;;;25.20;;
23800;SDS011;12081;48.614;10.226;2022-08-19T12:02:21;32.47;;;24.67;;
23800;SDS011;12081;48.614;10.226;2022-08-19T12:05:06;35.20;;;22.33;;
23800;SDS011;12081;48.614;10.226;2022-08-19T12:07:51;34.27;;;23.73;;
23800;SDS011;12081;48.614;10.226;2022-08-19T12:10:38;29.90;;;21.83;;
23800;SDS011;12081;48.614;10.226;2022-08-19T12:13:24;25.90;;;20.93;;
23800;SDS011;12081;48.614;10.226;2022-08-19T12:16:12;23.97;;;19.73;;
23800;SDS011;12081;48.614;10.226;2022-08-19T12:19:00;30.23;;;20.70;;
23800;SDS011;12081;48.614;10.226;2022-08-19T12:21:47;32.53;;;20.50;;
23800;SDS011;12081;48.614;10.226;2022-08-19T12:24:32;29.00;;;20.70;;
23800;SDS011;12081;48.614;10.226;2022-08-19T12:27:18;22.97;;;17.93;;
23800;SDS011;12081;48.614;10.226;2022-08-19T12:30:03;19.47;;;16.70;;
23800;SDS011;12081;48.614;10.226;2022-08-19T12:32:48;17.50;;;15.33;;
23800;SDS011;12081;48.614;10.226;2022-08-19T12:35:32;17.77;;;14.87;;
23800;SDS011;12081;48.614;10.226;2022-08-19T12:38:16;17.73;;;14.07;;
23800;SDS011;12081;48.614;10.226;2022-08-19T12:41:00;13.80;;;12.30;;
23800;SDS011;12081;48.614;10.226;2022-08-19T12:43:49;12.70;;;11.47;;
23800;SDS011;12081;48.614;10.226;2022-08-19T12:46:33;12.67;;;11.47;;
23800;SDS011;12081;48.614;10.226;2022-08-19T12:49:17;11.20;;;10.10;;
23800;SDS011;12081;48.614;10.226;2022-08-19T12:52:02;11.67;;;10.57;;
23800;SDS011;12081;48.614;10.226;2022-08-19T12:54:47;11.17;;;10.07;;
23800;SDS011;12081;48.614;10.226;2022-08-19T12:57:32;10.83;;;9.73;;
23800;SDS011;12081;48.614;10.226;2022-08-19T13:00:20;10.83;;;9.73;;
23800;SDS011;12081;48.614;10.226;2022-08-19T13:03:05;11.47;;;10.37;;
23800;SDS011;12081;48.614;10.226;2022-08-19T13:05:50;11.37;;;10.00;;
23800;SDS011;12081;48.614;10.226;2022-08-19T13:08:34;10.93;;;9.93;;
23800;SDS011;12081;48.614;10.226;2022-08-19T13:11:20;12.07;;;10.77;;
23800;SDS011;12081;48.614;10.226;2022-08-19T13:14:07;13.97;;;9.93;;
23800;SDS011;12081;48.614;10.226;2022-08-19T13:16:52;13.40;;;11.33;;
23800;SDS011;12081;48.614;10.226;2022-08-19T13:19:36;13.30;;;11.90;;
23800;SDS011;12081;48.614;10.226;2022-08-19T13:22:20;13.30;;;12.00;;
23800;SDS011;12081;48.614;10.226;2022-08-19T13:25:05;14.60;;;13.23;;
23800;SDS011;12081;48.614;10.226;2022-08-19T13:27:51;13.80;;;12.50;;
23800;SDS011;12081;48.614;10.226;2022-08-19T13:30:36;13.37;;;12.00;;
23800;SDS011;12081;48.614;10.226;2022-08-19T13:33:38;14.83;;;13.40;;
23800;SDS011;12081;48.614;10.226;2022-08-19T13:36:22;13.60;;;12.30;;
23800;SDS011;12081;48.614;10.226;2022-08-19T13:39:07;13.73;;;12.40;;
23800;SDS011;12081;48.614;10.226;2022-08-19T13:41:53;14.03;;;12.73;;
23800;SDS011;12081;48.614;10.226;2022-08-19T13:44:37;12.27;;;10.53;;
23800;SDS011;12081;48.614;10.226;2022-08-19T13:47:21;10.87;;;9.87;;
23800;SDS011;12081;48.614;10.226;2022-08-19T13:50:05;12.73;;;11.63;;
23800;SDS011;12081;48.614;10.226;2022-08-19T13:52:49;12.03;;;10.93;;
23800;SDS011;12081;48.614;10.226;2022-08-19T13:55:36;12.73;;;11.43;;
23800;SDS011;12081;48.614;10.226;2022-08-19T13:58:22;9.00;;;8.20;;
23800;SDS011;12081;48.614;10.226;2022-08-19T14:01:06;8.97;;;8.17;;
23800;SDS011;12081;48.614;10.226;2022-08-19T14:03:52;7.67;;;6.80;;
23800;SDS011;12081;48.614;10.226;2022-08-19T14:06:36;7.10;;;6.40;;
23800;SDS011;12081;48.614;10.226;2022-08-19T14:09:21;7.30;;;6.60;;
23800;SDS011;12081;48.614;10.226;2022-08-19T14:12:05;7.17;;;6.57;;
23800;SDS011;12081;48.614;10.226;2022-08-19T14:14:49;7.57;;;6.97;;
23800;SDS011;12081;48.614;10.226;2022-08-19T14:17:33;7.03;;;6.30;;
23800;SDS011;12081;48.614;10.226;2022-08-19T14:20:20;8.17;;;6.23;;
23800;SDS011;12081;48.614;10.226;2022-08-19T14:23:05;7.97;;;7.27;;
23800;SDS011;12081;48.614;10.226;2022-08-19T14:25:49;8.67;;;7.40;;
23800;SDS011;12081;48.614;10.226;2022-08-19T14:28:33;9.00;;;8.10;;
23800;SDS011;12081;48.614;10.226;2022-08-19T14:31:18;11.37;;;9.73;;
23800;SDS011;12081;48.614;10.226;2022-08-19T14:34:02;10.90;;;9.20;;
23800;SDS011;12081;48.614;10.226;2022-08-19T14:36:46;12.17;;;10.93;;
23800;SDS011;12081;48.614;10.226;2022-08-19T14:39:31;12.37;;;11.23;;
23800;SDS011;12081;48.614;10.226;2022-08-19T14:42:15;11.83;;;10.63;;
23800;SDS011;12081;48.614;10.226;2022-08-19T14:44:59;10.57;;;9.27;;
23800;SDS011;12081;48.614;10.226;2022-08-19T14:47:43;11.00;;;9.90;;
23800;SDS011;12081;48.614;10.226;2022-08-19T14:50:27;11.90;;;10.90;;
23800;SDS011;12081;48.614;10.226;2022-08-19T14:53:12;12.43;;;10.77;;
23800;SDS011;12081;48.614;10.226;2022-08-19T14:55:59;13.30;;;11.90;;
23800;SDS011;12081;48.614;10.226;2022-08-19T14:58:44;15.20;;;12.10;;
23800;SDS011;12081;48.614;10.226;2022-08-19T15:01:28;15.03;;;13.53;;
23800;SDS011;12081;48.614;10.226;2022-08-19T15:04:13;16.00;;;13.60;;
23800;SDS011;12081;48.614;10.226;2022-08-19T15:06:57;14.43;;;12.27;;
23800;SDS011;12081;48.614;10.226;2022-08-19T15:09:42;14.13;;;11.23;;
23800;SDS011;12081;48.614;10.226;2022-08-19T15:12:26;12.27;;;11.03;;
23800;SDS011;12081;48.614;10.226;2022-08-19T15:15:12;11.73;;;10.57;;
23800;SDS011;12081;48.614;10.226;2022-08-19T15:17:57;12.73;;;10.70;;
23800;SDS011;12081;48.614;10.226;2022-08-19T15:20:46;11.90;;;10.70;;
23800;SDS011;12081;48.614;10.226;2022-08-19T15:23:31;11.30;;;10.13;;
23800;SDS011;12081;48.614;10.226;2022-08-19T15:26:16;13.17;;;11.80;;
23800;SDS011;12081;48.614;10.226;2022-08-19T15:29:03;12.80;;;11.60;;
23800;SDS011;12081;48.614;10.226;2022-08-19T15:31:47;11.97;;;10.77;;
23800;SDS011;12081;48.614;10.226;2022-08-19T15:34:32;12.67;;;11.47;;
23800;SDS011;12081;48.614;10.226;2022-08-19T15:37:18;12.67;;;11.47;;
23800;SDS011;12081;48.614;10.226;2022-08-19T15:40:05;13.57;;;12.27;;
23800;SDS011;12081;48.614;10.226;2022-08-19T15:42:52;15.83;;;13.50;;
23800;SDS011;12081;48.614;10.226;2022-08-19T15:45:36;18.10;;;15.17;;
23800;SDS011;12081;48.614;10.226;2022-08-19T15:48:22;16.83;;;15.20;;
23800;SDS011;12081;48.614;10.226;2022-08-19T15:51:06;15.73;;;14.20;;
23800;SDS011;12081;48.614;10.226;2022-08-19T15:53:51;14.47;;;12.97;;
23800;SDS011;12081;48.614;10.226;2022-08-19T15:56:36;15.30;;;13.73;;
23800;SDS011;12081;48.614;10.226;2022-08-19T15:59:40;14.30;;;12.90;;
23800;SDS011;12081;48.614;10.226;2022-08-19T16:02:43;14.73;;;13.33;;
23800;SDS011;12081;48.614;10.226;2022-08-19T16:05:50;13.50;;;12.20;;
23800;SDS011;12081;48.614;10.226;2022-08-19T16:08:56;13.83;;;12.43;;
23800;SDS011;12081;48.614;10.226;2022-08-19T16:11:42;14.10;;;12.60;;
23800;SDS011;12081;48.614;10.226;2022-08-19T16:14:32;15.60;;;13.77;;
23800;SDS011;12081;48.614;10.226;2022-08-19T16:17:18;14.43;;;12.93;;
23800;SDS011;12081;48.614;10.226;2022-08-19T16:20:03;14.53;;;12.57;;
23800;SDS011;12081;48.614;10.226;2022-08-19T16:22:49;14.57;;;13.03;;
23800;SDS011;12081;48.614;10.226;2022-08-19T16:25:33;14.50;;;12.57;;
23800;SDS011;12081;48.614;10.226;2022-08-19T16:28:18;13.70;;;12.37;;
23800;SDS011;12081;48.614;10.226;2022-08-19T16:31:03;15.00;;;12.93;;
23800;SDS011;12081;48.614;10.226;2022-08-19T16:33:48;14.60;;;13.10;;
23800;SDS011;12081;48.614;10.226;2022-08-19T16:36:32;13.67;;;12.17;;
23800;SDS011;12081;48.614;10.226;2022-08-19T16:39:16;15.37;;;13.77;;
23800;SDS011;12081;48.614;10.226;2022-08-19T16:42:01;14.83;;;13.43;;
23800;SDS011;12081;48.614;10.226;2022-08-19T16:44:46;14.13;;;12.87;;
23800;SDS011;12081;48.614;10.226;2022-08-19T16:47:30;14.63;;;13.13;;
23800;SDS011;12081;48.614;10.226;2022-08-19T16:50:14;14.07;;;12.63;;
23800;SDS011;12081;48.614;10.226;2022-08-19T16:52:59;14.63;;;12.90;;
23800;SDS011;12081;48.614;10.226;2022-08-19T16:55:44;14.93;;;13.27;;
23800;SDS011;12081;48.614;10.226;2022-08-19T16:58:29;14.33;;;12.97;;
23800;SDS011;12081;48.614;10.226;2022-08-19T17:01:16;14.07;;;12.73;;
23800;SDS011;12081;48.614;10.226;2022-08-19T17:04:01;14.17;;;12.63;;
23800;SDS011;12081;48.614;10.226;2022-08-19T17:06:45;15.30;;;12.67;;
23800;SDS011;12081;48.614;10.226;2022-08-19T17:09:30;13.90;;;12.63;;
23800;SDS011;12081;48.614;10.226;2022-08-19T17:12:14;13.57;;;12.37;;
23800;SDS011;12081;48.614;10.226;2022-08-19T17:14:59;12.93;;;11.63;;
23800;SDS011;12081;48.614;10.226;2022-08-19T17:17:44;13.67;;;12.40;;
23800;SDS011;12081;48.614;10.226;2022-08-19T17:20:32;13.57;;;12.33;;
23800;SDS011;12081;48.614;10.226;2022-08-19T17:23:18;13.97;;;12.63;;
23800;SDS011;12081;48.614;10.226;2022-08-19T17:26:04;14.27;;;12.87;;
23800;SDS011;12081;48.614;10.226;2022-08-19T17:28:50;15.33;;;13.73;;
23800;SDS011;12081;48.614;10.226;2022-08-19T17:31:36;15.90;;;14.20;;
23800;SDS011;12081;48.614;10.226;2022-08-19T17:34:20;16.03;;;14.43;;
23800;SDS011;12081;48.614;10.226;2022-08-19T17:37:04;16.83;;;15.07;;
23800;SDS011;12081;48.614;10.226;2022-08-19T17:39:48;16.90;;;14.83;;
23800;SDS011;12081;48.614;10.226;2022-08-19T17:42:32;17.27;;;15.50;;
23800;SDS011;12081;48.614;10.226;2022-08-19T17:45:18;17.03;;;15.33;;
23800;SDS011;12081;48.614;10.226;2022-08-19T17:48:03;16.43;;;14.93;;
23800;SDS011;12081;48.614;10.226;2022-08-19T17:50:47;18.90;;;17.07;;
23800;SDS011;12081;48.614;10.226;2022-08-19T17:53:33;17.97;;;16.17;;
23800;SDS011;12081;48.614;10.226;2022-08-19T17:56:18;16.70;;;15.00;;
23800;SDS011;12081;48.614;10.226;2022-08-19T17:59:04;16.63;;;14.97;;
23800;SDS011;12081;48.614;10.226;2022-08-19T18:01:49;16.87;;;15.17;;
23800;SDS011;12081;48.614;10.226;2022-08-19T18:04:33;17.93;;;16.13;;
23800;SDS011;12081;48.614;10.226;2022-08-19T18:07:18;16.67;;;14.87;;
23800;SDS011;12081;48.614;10.226;2022-08-19T18:10:04;16.33;;;14.93;;
23800;SDS011;12081;48.614;10.226;2022-08-19T18:12:49;15.97;;;14.57;;
23800;SDS011;12081;48.614;10.226;2022-08-19T18:15:34;17.30;;;15.60;;
23800;SDS011;12081;48.614;10.226;2022-08-19T18:18:18;16.83;;;15.17;;
23800;SDS011;12081;48.614;10.226;2022-08-19T18:21:03;16.77;;;15.00;;
23800;SDS011;12081;48.614;10.226;2022-08-19T18:23:48;17.43;;;15.50;;
23800;SDS011;12081;48.614;10.226;2022-08-19T18:26:32;16.77;;;15.07;;
23800;SDS011;12081;48.614;10.226;2022-08-19T18:29:17;16.50;;;14.90;;
23800;SDS011;12081;48.614;10.226;2022-08-19T18:32:01;18.27;;;16.47;;
23800;SDS011;12081;48.614;10.226;2022-08-19T18:34:46;18.17;;;16.37;;